Time;durP1;ratioP1;P1;durP2;ratioP2;P2;SDS_P1;SDS_P2;PMS_P1;PMS_P2;Temp;Humidity;BMP_temperature;BMP_pressure;BME280_temperature;BME280_humidity;BME280_pressure;Samples;Min_cycle;Max_cycle;Signal;HPM_P1;HPM_P2
2021/01/11 00:01:46;;;;;;;;;5.33;5.00;;;;;;;;5069510;28;8870;-68
2021/01/11 00:04:12;;;;;;;;;4.33;2.67;;;;;;;;5069515;28;8855;-69
2021/01/11 00:06:38;;;;;;;;;5.00;4.00;;;;;;;;5069270;28;8858;-68
2021/01/11 00:09:05;;;;;;;;;5.33;5.00;;;;;;;;5069417;28;8984;-69
2021/01/11 00:11:32;;;;;;;;;5.00;5.00;;;;;;;;5069173;28;8942;-68
2021/01/11 00:13:58;;;;;;;;;8.00;8.00;;;;;;;;5069563;28;8839;-69
2021/01/11 00:16:24;;;;;;;;;8.33;3.33;;;;;;;;5069272;28;8838;-68
2021/01/11 00:18:51;;;;;;;;;5.67;5.33;;;;;;;;5069331;28;8900;-70
2021/01/11 00:21:16;;;;;;;;;5.33;5.00;;;;;;;;5069348;28;8937;-69
2021/01/11 00:23:42;;;;;;;;;4.00;2.00;;;;;;;;5067123;28;9005;-70
2021/01/11 00:26:09;;;;;;;;;5.67;4.00;;;;;;;;5073519;28;8941;-70
2021/01/11 00:28:35;;;;;;;;;5.00;5.00;;;;;;;;5073041;28;9001;-69
2021/01/11 00:31:01;;;;;;;;;6.67;4.67;;;;;;;;5073103;28;8909;-69
2021/01/11 00:33:27;;;;;;;;;4.33;4.00;;;;;;;;5073102;28;8941;-69
2021/01/11 00:35:53;;;;;;;;;6.00;4.67;;;;;;;;5073048;28;8855;-67
2021/01/11 00:38:19;;;;;;;;;10.00;5.33;;;;;;;;5072934;28;8827;-68
2021/01/11 00:40:45;;;;;;;;;4.67;4.67;;;;;;;;5073250;28;9602;-69
2021/01/11 00:43:11;;;;;;;;;6.67;4.00;;;;;;;;5073062;28;9105;-69
2021/01/11 00:45:37;;;;;;;;;4.67;4.67;;;;;;;;5072777;28;8859;-69
2021/01/11 00:48:03;;;;;;;;;5.67;5.00;;;;;;;;5073267;28;8859;-69
2021/01/11 00:50:29;;;;;;;;;6.00;4.00;;;;;;;;5072472;28;8957;-68
2021/01/11 00:52:56;;;;;;;;;5.00;5.00;;;;;;;;5072941;28;8915;-69
2021/01/11 00:55:21;;;;;;;;;6.00;5.00;;;;;;;;5072976;28;8884;-68
2021/01/11 00:57:47;;;;;;;;;7.67;6.67;;;;;;;;5072871;28;8953;-68
2021/01/11 01:00:14;;;;;;;;;8.00;5.67;;;;;;;;5072442;28;8831;-69
2021/01/11 01:02:40;;;;;;;;;8.67;5.00;;;;;;;;5072556;28;9555;-69
2021/01/11 01:05:07;;;;;;;;;9.00;5.00;;;;;;;;5072501;28;8839;-69
2021/01/11 01:07:33;;;;;;;;;6.67;5.00;;;;;;;;5072250;28;8870;-70
2021/01/11 01:09:59;;;;;;;;;11.33;6.00;;;;;;;;5072676;28;8839;-70
2021/01/11 01:12:26;;;;;;;;;9.00;6.00;;;;;;;;5072110;28;8841;-70
2021/01/11 01:14:52;;;;;;;;;5.67;5.00;;;;;;;;5072536;28;8961;-69
2021/01/11 01:17:18;;;;;;;;;5.00;5.00;;;;;;;;5072364;28;8877;-70
2021/01/11 01:19:43;;;;;;;;;8.67;6.67;;;;;;;;5072213;28;9005;-70
2021/01/11 01:22:09;;;;;;;;;12.00;9.67;;;;;;;;5072392;28;8831;-70
2021/01/11 01:24:35;;;;;;;;;7.33;5.67;;;;;;;;5072186;28;8881;-70
2021/01/11 01:27:02;;;;;;;;;6.67;5.00;;;;;;;;5072352;28;8843;-70
2021/01/11 01:29:28;;;;;;;;;8.00;8.00;;;;;;;;5072141;28;8842;-69
2021/01/11 01:31:54;;;;;;;;;9.67;8.00;;;;;;;;5071888;28;8847;-69
2021/01/11 01:34:20;;;;;;;;;8.67;6.67;;;;;;;;5070973;28;8869;-69
2021/01/11 01:36:46;;;;;;;;;9.67;9.67;;;;;;;;5071944;28;8962;-69
2021/01/11 01:39:11;;;;;;;;;6.67;5.00;;;;;;;;5067733;28;8973;-68
2021/01/11 01:41:37;;;;;;;;;6.00;5.00;;;;;;;;5071851;28;8921;-68
2021/01/11 01:44:04;;;;;;;;;8.00;8.00;;;;;;;;5071817;28;8851;-69
2021/01/11 01:46:31;;;;;;;;;5.33;5.33;;;;;;;;5071678;28;9678;-69
2021/01/11 01:48:57;;;;;;;;;5.00;5.00;;;;;;;;5071669;28;8847;-69
2021/01/11 01:51:23;;;;;;;;;6.00;5.33;;;;;;;;5071465;28;8845;-69
2021/01/11 01:53:49;;;;;;;;;6.00;5.00;;;;;;;;5071229;28;8835;-69
2021/01/11 01:56:16;;;;;;;;;6.00;5.33;;;;;;;;5071553;28;8942;-69
2021/01/11 01:58:42;;;;;;;;;8.33;8.00;;;;;;;;5067587;28;8962;-69
2021/01/11 02:01:09;;;;;;;;;5.67;4.67;;;;;;;;5071319;28;8961;-69
2021/01/11 02:03:35;;;;;;;;;5.00;4.00;;;;;;;;5071041;28;8866;-71
2021/01/11 02:06:01;;;;;;;;;8.00;6.00;;;;;;;;5071368;28;8855;-71
2021/01/11 02:08:32;;;;;;;;;6.00;6.00;;;;;;;;5071107;28;8870;-71
2021/01/11 02:11:06;;;;;;;;;12.33;6.00;;;;;;;;5071331;28;8849;-71
2021/01/11 02:13:39;;;;;;;;;7.67;6.00;;;;;;;;5071024;28;8854;-71
2021/01/11 02:16:07;;;;;;;;;6.00;4.67;;;;;;;;5071353;28;9112;-72
2021/01/11 02:18:38;;;;;;;;;9.00;7.33;;;;;;;;5071007;28;8858;-71
2021/01/11 02:21:08;;;;;;;;;5.33;5.33;;;;;;;;5070879;28;8839;-72
2021/01/11 02:23:53;;;;;;;;;5.00;5.00;;;;;;;;5070634;28;8834;-72
2021/01/11 02:26:30;;;;;;;;;8.00;6.00;;;;;;;;5067798;28;8941;-72
2021/01/11 02:28:58;;;;;;;;;9.33;5.67;;;;;;;;5071075;28;8961;-72
2021/01/11 02:31:26;;;;;;;;;8.00;8.00;;;;;;;;5071038;28;9575;-72
2021/01/11 02:33:55;;;;;;;;;9.00;5.33;;;;;;;;5070864;28;9574;-72
2021/01/11 02:36:22;;;;;;;;;6.00;6.00;;;;;;;;5070639;28;9713;-70
2021/01/11 02:38:48;;;;;;;;;5.00;3.33;;;;;;;;5071089;28;8834;-71
2021/01/11 02:41:14;;;;;;;;;5.67;5.00;;;;;;;;5070796;28;8957;-71
2021/01/11 02:43:40;;;;;;;;;8.00;8.00;;;;;;;;5070836;28;8877;-71
2021/01/11 02:46:07;;;;;;;;;6.67;5.00;;;;;;;;5069966;28;8989;-71
2021/01/11 02:48:36;;;;;;;;;4.00;4.00;;;;;;;;5070453;28;8851;-70
2021/01/11 02:51:07;;;;;;;;;4.33;4.33;;;;;;;;5070579;28;8948;-71
2021/01/11 02:53:36;;;;;;;;;5.67;5.33;;;;;;;;5070359;28;8835;-71
2021/01/11 02:56:03;;;;;;;;;5.00;5.00;;;;;;;;5070809;28;8848;-72
2021/01/11 02:58:46;;;;;;;;;6.00;5.00;;;;;;;;5070267;28;8968;-72
2021/01/11 03:01:14;;;;;;;;;8.00;6.00;;;;;;;;5066713;28;8852;-72
2021/01/11 03:03:42;;;;;;;;;7.33;5.00;;;;;;;;5066555;28;8945;-72
2021/01/11 03:06:11;;;;;;;;;9.33;8.00;;;;;;;;5070294;28;8839;-71
2021/01/11 03:08:37;;;;;;;;;8.00;5.67;;;;;;;;5070553;28;8970;-69
2021/01/11 03:11:03;;;;;;;;;6.00;6.00;;;;;;;;5070411;28;9567;-72
2021/01/11 03:13:29;;;;;;;;;7.67;4.00;;;;;;;;5070030;28;8939;-72
2021/01/11 03:15:55;;;;;;;;;8.00;6.00;;;;;;;;5070536;28;8865;-71
2021/01/11 03:18:21;;;;;;;;;8.00;5.33;;;;;;;;5069916;28;8878;-72
2021/01/11 03:20:48;;;;;;;;;5.33;5.00;;;;;;;;5070108;28;8851;-72
2021/01/11 03:23:14;;;;;;;;;7.33;5.00;;;;;;;;5069997;28;8865;-71
2021/01/11 03:25:40;;;;;;;;;5.00;5.00;;;;;;;;5069955;28;8950;-71
2021/01/11 03:28:06;;;;;;;;;5.33;5.00;;;;;;;;5070203;28;8939;-71
2021/01/11 03:30:32;;;;;;;;;8.67;8.00;;;;;;;;5069826;28;9582;-71
2021/01/11 03:32:58;;;;;;;;;5.00;5.00;;;;;;;;5069821;28;8834;-71
2021/01/11 03:35:24;;;;;;;;;5.33;4.00;;;;;;;;5069883;28;8877;-72
2021/01/11 03:37:51;;;;;;;;;4.67;4.67;;;;;;;;5069807;28;8835;-71
2021/01/11 03:40:16;;;;;;;;;8.00;5.00;;;;;;;;5069835;28;8929;-71
2021/01/11 03:42:42;;;;;;;;;5.33;3.33;;;;;;;;5070192;28;8861;-71
2021/01/11 03:45:09;;;;;;;;;1.00;1.00;;;;;;;;5069878;28;8899;-71
2021/01/11 03:47:36;;;;;;;;;6.00;5.00;;;;;;;;5069823;28;8990;-71
2021/01/11 03:50:02;;;;;;;;;5.00;4.00;;;;;;;;5069770;28;8847;-72
2021/01/11 03:52:29;;;;;;;;;4.00;4.00;;;;;;;;5069628;28;8918;-72
2021/01/11 03:54:55;;;;;;;;;5.00;5.00;;;;;;;;5069675;28;8865;-72
2021/01/11 03:57:21;;;;;;;;;5.00;5.00;;;;;;;;5069490;28;8953;-72
2021/01/11 03:59:47;;;;;;;;;4.67;4.67;;;;;;;;5069628;28;8873;-72
2021/01/11 04:02:13;;;;;;;;;5.00;4.00;;;;;;;;5069570;28;9096;-71
2021/01/11 04:04:39;;;;;;;;;5.00;4.33;;;;;;;;5069615;28;9523;-72
2021/01/11 04:07:05;;;;;;;;;4.67;4.67;;;;;;;;5069572;28;8865;-71
2021/01/11 04:09:31;;;;;;;;;4.33;4.00;;;;;;;;5069551;28;8865;-71
2021/01/11 04:11:58;;;;;;;;;6.00;5.00;;;;;;;;5069553;28;8966;-72
2021/01/11 04:14:23;;;;;;;;;6.00;4.00;;;;;;;;5069199;28;8961;-71
2021/01/11 04:16:52;;;;;;;;;5.00;5.00;;;;;;;;5069437;28;8958;-70
2021/01/11 04:19:17;;;;;;;;;3.33;3.33;;;;;;;;5069250;28;8839;-70
2021/01/11 04:21:43;;;;;;;;;5.00;5.00;;;;;;;;5069061;28;8990;-70
2021/01/11 04:24:10;;;;;;;;;2.00;2.00;;;;;;;;5065219;28;8897;-71
2021/01/11 04:26:35;;;;;;;;;4.67;4.00;;;;;;;;5069354;28;8838;-70
2021/01/11 04:29:02;;;;;;;;;6.00;4.00;;;;;;;;5069310;28;8838;-71
2021/01/11 04:31:28;;;;;;;;;2.00;2.00;;;;;;;;5069437;28;8996;-71
2021/01/11 04:33:54;;;;;;;;;4.00;4.00;;;;;;;;5069317;28;8818;-71
2021/01/11 04:36:20;;;;;;;;;8.00;5.33;;;;;;;;5068941;28;8949;-71
2021/01/11 04:38:46;;;;;;;;;3.33;3.33;;;;;;;;5069645;28;8846;-71
2021/01/11 04:41:13;;;;;;;;;4.00;4.00;;;;;;;;5068854;28;8842;-72
2021/01/11 04:43:42;;;;;;;;;5.00;4.00;;;;;;;;5069421;28;8823;-71
2021/01/11 04:46:08;;;;;;;;;4.00;4.00;;;;;;;;5069290;28;8904;-71
2021/01/11 04:48:34;;;;;;;;;5.67;4.00;;;;;;;;5069315;28;8977;-72
2021/01/11 04:51:01;;;;;;;;;6.00;4.67;;;;;;;;5069173;28;8869;-72
2021/01/11 04:53:27;;;;;;;;;5.33;4.00;;;;;;;;5068931;28;8974;-71
2021/01/11 04:55:54;;;;;;;;;4.00;4.00;;;;;;;;5069465;28;8846;-70
2021/01/11 04:58:21;;;;;;;;;4.00;4.00;;;;;;;;5068824;28;8847;-71
2021/01/11 05:00:48;;;;;;;;;4.67;4.67;;;;;;;;5068934;28;8850;-71
2021/01/11 05:03:15;;;;;;;;;5.00;4.00;;;;;;;;5068901;28;9697;-71
2021/01/11 05:05:43;;;;;;;;;4.67;4.67;;;;;;;;5069124;28;8945;-71
2021/01/11 05:08:09;;;;;;;;;4.00;4.00;;;;;;;;5064965;28;8823;-71
2021/01/11 05:10:36;;;;;;;;;6.00;4.33;;;;;;;;5072129;28;8858;-71
2021/01/11 05:13:03;;;;;;;;;8.67;5.00;;;;;;;;5072463;28;8965;-71
2021/01/11 05:15:30;;;;;;;;;6.33;2.00;;;;;;;;5072451;28;8855;-71
2021/01/11 05:17:56;;;;;;;;;5.00;4.00;;;;;;;;5072346;28;8834;-71
2021/01/11 05:20:24;;;;;;;;;5.67;4.33;;;;;;;;5072155;28;8953;-72
2021/01/11 05:22:52;;;;;;;;;4.00;3.33;;;;;;;;5072373;28;8941;-71
2021/01/11 05:25:18;;;;;;;;;4.00;4.00;;;;;;;;5072371;28;8949;-72
2021/01/11 05:27:45;;;;;;;;;2.00;2.00;;;;;;;;5072292;28;8827;-72
2021/01/11 05:30:27;;;;;;;;;1.33;1.33;;;;;;;;5072207;28;8822;-71
2021/01/11 05:32:53;;;;;;;;;5.33;4.00;;;;;;;;5069916;28;8826;-71
2021/01/11 05:35:21;;;;;;;;;4.67;4.67;;;;;;;;5071982;28;8938;-71
2021/01/11 05:37:48;;;;;;;;;4.33;4.00;;;;;;;;5072070;28;8993;-71
2021/01/11 05:40:15;;;;;;;;;6.33;2.67;;;;;;;;5071816;28;8861;-71
2021/01/11 05:42:42;;;;;;;;;4.00;4.00;;;;;;;;5072113;28;8921;-71
2021/01/11 05:45:08;;;;;;;;;4.00;4.00;;;;;;;;5072035;28;8951;-71
2021/01/11 05:47:34;;;;;;;;;4.33;3.33;;;;;;;;5071949;28;8880;-72
2021/01/11 05:50:06;;;;;;;;;5.00;4.00;;;;;;;;5072212;28;8965;-72
2021/01/11 05:52:32;;;;;;;;;2.67;2.67;;;;;;;;5071384;28;8843;-71
2021/01/11 05:55:18;;;;;;;;;8.67;4.00;;;;;;;;5071464;28;8946;-71
2021/01/11 05:57:52;;;;;;;;;4.00;4.00;;;;;;;;5068462;28;8846;-72
2021/01/11 06:00:18;;;;;;;;;4.67;3.33;;;;;;;;5071295;28;8839;-72
2021/01/11 06:02:44;;;;;;;;;5.33;5.33;;;;;;;;5071455;28;8842;-72
2021/01/11 06:05:11;;;;;;;;;2.00;2.00;;;;;;;;5070625;28;8822;-73
2021/01/11 06:07:37;;;;;;;;;2.00;0.33;;;;;;;;5071491;28;8942;-71
2021/01/11 06:10:06;;;;;;;;;5.00;5.00;;;;;;;;5067937;28;8854;-73
2021/01/11 06:12:33;;;;;;;;;5.33;4.33;;;;;;;;5071113;28;8849;-71
2021/01/11 06:14:59;;;;;;;;;4.00;4.00;;;;;;;;5071781;28;8968;-73
2021/01/11 06:17:25;;;;;;;;;2.67;2.67;;;;;;;;5071191;28;8958;-70
2021/01/11 06:19:51;;;;;;;;;7.33;5.00;;;;;;;;4939049;28;10399;-72
2021/01/11 06:22:20;;;;;;;;;2.67;2.67;;;;;;;;5065969;28;8855;-69
2021/01/11 06:24:46;;;;;;;;;5.33;4.00;;;;;;;;5070945;28;8831;-68
2021/01/11 06:27:16;;;;;;;;;8.33;6.00;;;;;;;;5069740;28;8992;-69
2021/01/11 06:29:45;;;;;;;;;5.00;5.00;;;;;;;;5067209;28;8842;-73
2021/01/11 06:32:18;;;;;;;;;5.00;4.67;;;;;;;;5069172;28;8994;-76
2021/01/11 06:34:44;;;;;;;;;2.67;2.67;;;;;;;;5068206;28;9010;-77
2021/01/11 06:37:16;;;;;;;;;5.00;5.00;;;;;;;;5070763;28;8948;-74
2021/01/11 06:39:43;;;;;;;;;6.67;4.00;;;;;;;;5067644;28;8827;-69
2021/01/11 06:42:11;;;;;;;;;10.33;4.00;;;;;;;;5066561;28;8961;-69
2021/01/11 06:44:39;;;;;;;;;5.00;4.00;;;;;;;;5070832;28;9551;-68
2021/01/11 06:47:05;;;;;;;;;5.33;5.33;;;;;;;;5070779;28;8850;-69
2021/01/11 06:49:33;;;;;;;;;6.00;6.00;;;;;;;;5070338;28;8854;-69
2021/01/11 06:52:03;;;;;;;;;4.00;4.00;;;;;;;;5070747;28;8996;-70
2021/01/11 06:54:41;;;;;;;;;4.00;2.00;;;;;;;;5067957;28;8988;-71
2021/01/11 06:57:23;;;;;;;;;7.67;4.67;;;;;;;;5068748;28;8819;-71
2021/01/11 06:59:54;;;;;;;;;3.33;3.33;;;;;;;;5066319;28;8846;-70
2021/01/11 07:02:21;;;;;;;;;6.33;5.33;;;;;;;;5067876;28;8847;-69
2021/01/11 07:04:47;;;;;;;;;6.33;6.33;;;;;;;;5069105;28;8843;-73
2021/01/11 07:07:19;;;;;;;;;2.00;2.00;;;;;;;;5068769;28;8835;-73
2021/01/11 07:09:52;;;;;;;;;6.00;5.00;;;;;;;;5065151;28;8827;-72
2021/01/11 07:12:18;;;;;;;;;6.67;5.67;;;;;;;;5068776;28;8855;-73
2021/01/11 07:15:08;;;;;;;;;5.33;5.33;;;;;;;;5070670;28;8854;-72
2021/01/11 07:17:35;;;;;;;;;8.33;4.00;;;;;;;;5060452;28;8969;-69
2021/01/11 07:20:01;;;;;;;;;7.00;7.00;;;;;;;;5070149;28;9817;-68
2021/01/11 07:22:28;;;;;;;;;8.33;8.00;;;;;;;;5069690;28;8863;-69
2021/01/11 07:24:53;;;;;;;;;8.00;6.33;;;;;;;;5069799;28;8965;-68
2021/01/11 07:27:19;;;;;;;;;10.00;6.33;;;;;;;;5069331;28;8869;-69
2021/01/11 07:29:46;;;;;;;;;9.00;5.00;;;;;;;;5070282;28;8949;-71
2021/01/11 07:32:12;;;;;;;;;10.33;6.00;;;;;;;;5068498;28;8900;-69
2021/01/11 07:34:41;;;;;;;;;5.00;4.00;;;;;;;;5070013;28;8859;-69
2021/01/11 07:37:13;;;;;;;;;7.33;7.33;;;;;;;;5069764;28;8867;-67
2021/01/11 07:39:39;;;;;;;;;6.33;6.33;;;;;;;;5069782;28;9705;-67
2021/01/11 07:42:05;;;;;;;;;6.67;5.33;;;;;;;;5069949;28;8954;-72
2021/01/11 07:44:33;;;;;;;;;8.00;8.00;;;;;;;;5069559;28;8823;-68
2021/01/11 07:47:00;;;;;;;;;5.00;5.00;;;;;;;;5069813;28;8838;-68
2021/01/11 07:49:26;;;;;;;;;7.33;4.33;;;;;;;;5067269;28;8834;-69
2021/01/11 07:51:54;;;;;;;;;5.67;5.00;;;;;;;;5059295;28;8850;-65
2021/01/11 07:54:20;;;;;;;;;7.33;5.67;;;;;;;;5064357;28;8837;-66
2021/01/11 07:56:47;;;;;;;;;10.33;6.00;;;;;;;;5067272;28;8888;-66
2021/01/11 07:59:13;;;;;;;;;7.33;6.00;;;;;;;;5069497;28;8985;-64
2021/01/11 08:01:40;;;;;;;;;6.67;6.00;;;;;;;;5061847;28;9090;-66
2021/01/11 08:04:06;;;;;;;;;6.00;6.00;;;;;;;;5069760;28;8970;-67
2021/01/11 08:06:43;;;;;;;;;12.33;10.33;;;;;;;;5064900;28;9112;-68
2021/01/11 08:09:11;;;;;;;;;10.00;8.00;;;;;;;;5069560;28;8827;-66
2021/01/11 08:11:37;;;;;;;;;8.00;6.00;;;;;;;;5069254;28;8830;-69
2021/01/11 08:14:06;;;;;;;;;9.33;8.00;;;;;;;;5069077;28;8871;-67
2021/01/11 08:16:33;;;;;;;;;9.00;8.67;;;;;;;;5067973;28;8973;-66
2021/01/11 08:19:03;;;;;;;;;8.00;8.00;;;;;;;;5069644;28;8843;-70
2021/01/11 08:21:29;;;;;;;;;10.33;6.00;;;;;;;;5069064;28;9626;-67
2021/01/11 08:23:59;;;;;;;;;5.33;5.33;;;;;;;;5069471;28;8847;-68
2021/01/11 08:26:27;;;;;;;;;5.67;5.67;;;;;;;;5069041;28;8989;-67
2021/01/11 08:28:53;;;;;;;;;6.33;4.00;;;;;;;;5069168;28;8843;-69
2021/01/11 08:31:20;;;;;;;;;12.00;4.33;;;;;;;;5068701;28;8957;-68
2021/01/11 08:33:46;;;;;;;;;8.67;7.33;;;;;;;;5069563;28;8855;-68
2021/01/11 08:36:16;;;;;;;;;5.67;4.00;;;;;;;;5065151;28;8934;-68
2021/01/11 08:39:04;;;;;;;;;10.00;8.00;;;;;;;;5065264;28;8971;-68
2021/01/11 08:41:33;;;;;;;;;8.00;5.00;;;;;;;;5067482;28;8911;-69
2021/01/11 08:43:58;;;;;;;;;5.00;4.00;;;;;;;;5070186;28;8830;-72
2021/01/11 08:46:24;;;;;;;;;6.67;5.00;;;;;;;;5073158;28;8830;-67
2021/01/11 08:48:50;;;;;;;;;4.00;4.00;;;;;;;;5072839;28;8859;-74
2021/01/11 08:51:24;;;;;;;;;6.00;2.00;;;;;;;;5072535;28;9580;-69
2021/01/11 08:53:50;;;;;;;;;5.00;5.00;;;;;;;;5072758;28;8880;-69
2021/01/11 08:56:27;;;;;;;;;8.67;6.00;;;;;;;;5072379;28;8839;-68
2021/01/11 08:58:54;;;;;;;;;5.67;5.00;;;;;;;;5072776;28;8957;-68
2021/01/11 09:01:22;;;;;;;;;8.67;7.33;;;;;;;;5071278;28;8819;-68
2021/01/11 09:03:50;;;;;;;;;5.00;5.00;;;;;;;;5072777;28;8862;-68
2021/01/11 09:06:30;;;;;;;;;4.33;4.00;;;;;;;;5072560;28;8862;-66
2021/01/11 09:09:03;;;;;;;;;5.33;4.67;;;;;;;;5072747;28;8974;-69
2021/01/11 09:11:29;;;;;;;;;7.67;5.33;;;;;;;;5071826;28;8978;-69
2021/01/11 09:14:04;;;;;;;;;4.00;4.00;;;;;;;;5072196;28;9064;-69
2021/01/11 09:16:31;;;;;;;;;9.00;7.33;;;;;;;;5071072;28;8977;-69
2021/01/11 09:19:04;;;;;;;;;6.67;5.00;;;;;;;;5072236;28;8956;-71
2021/01/11 09:21:30;;;;;;;;;9.67;6.00;;;;;;;;5072109;28;8823;-71
2021/01/11 09:23:55;;;;;;;;;9.00;6.00;;;;;;;;5072224;28;8858;-73
2021/01/11 09:26:21;;;;;;;;;9.00;6.67;;;;;;;;5071931;28;8853;-70
2021/01/11 09:28:47;;;;;;;;;8.67;4.67;;;;;;;;5071880;28;8873;-72
2021/01/11 09:31:14;;;;;;;;;8.33;5.67;;;;;;;;5071886;28;8908;-73
2021/01/11 09:33:40;;;;;;;;;5.67;5.33;;;;;;;;5067935;28;8837;-74
2021/01/11 09:36:06;;;;;;;;;8.67;6.00;;;;;;;;5072284;28;8831;-75
2021/01/11 09:38:32;;;;;;;;;5.67;5.00;;;;;;;;5070062;28;8843;-73
2021/01/11 09:40:58;;;;;;;;;8.00;6.00;;;;;;;;5071854;28;9499;-68
2021/01/11 09:43:24;;;;;;;;;7.33;4.67;;;;;;;;5014710;28;10402;-68
2021/01/11 09:45:50;;;;;;;;;5.67;4.33;;;;;;;;5061548;28;8839;-68
2021/01/11 09:48:16;;;;;;;;;6.00;6.00;;;;;;;;5071861;28;8861;-67
2021/01/11 09:50:42;;;;;;;;;6.00;6.00;;;;;;;;5071782;28;8929;-68
2021/01/11 09:53:08;;;;;;;;;7.33;5.33;;;;;;;;5069852;28;8851;-70
2021/01/11 09:55:34;;;;;;;;;6.00;6.00;;;;;;;;5069156;28;8847;-70
2021/01/11 09:58:02;;;;;;;;;7.33;5.00;;;;;;;;5071441;28;8839;-68
2021/01/11 10:00:28;;;;;;;;;8.00;4.33;;;;;;;;5070918;28;8956;-67
2021/01/11 10:02:54;;;;;;;;;9.33;5.00;;;;;;;;5071441;28;8989;-68
2021/01/11 10:05:20;;;;;;;;;4.00;4.00;;;;;;;;5070931;28;8982;-69
2021/01/11 10:07:47;;;;;;;;;6.00;6.00;;;;;;;;5071792;28;8835;-69
2021/01/11 10:10:13;;;;;;;;;6.67;4.00;;;;;;;;5070946;28;8939;-69
2021/01/11 10:12:39;;;;;;;;;5.00;5.00;;;;;;;;5071484;28;8819;-68
2021/01/11 10:15:06;;;;;;;;;5.33;5.33;;;;;;;;5071284;28;8866;-69
2021/01/11 10:17:32;;;;;;;;;6.00;5.00;;;;;;;;5071591;28;8858;-69
2021/01/11 10:19:58;;;;;;;;;9.33;5.33;;;;;;;;5071194;28;8862;-72
2021/01/11 10:22:25;;;;;;;;;8.33;6.67;;;;;;;;5071063;28;8846;-69
2021/01/11 10:24:51;;;;;;;;;6.67;5.67;;;;;;;;5069259;28;9008;-68
2021/01/11 10:27:16;;;;;;;;;8.00;8.00;;;;;;;;5071067;28;9574;-68
2021/01/11 10:29:42;;;;;;;;;7.33;7.33;;;;;;;;5071152;28;8969;-68
2021/01/11 10:32:08;;;;;;;;;5.33;5.33;;;;;;;;5071313;28;8847;-68
2021/01/11 10:34:35;;;;;;;;;4.67;4.33;;;;;;;;5071217;28;8839;-69
2021/01/11 10:37:01;;;;;;;;;1.00;1.00;;;;;;;;5071129;28;8858;-69
2021/01/11 10:39:28;;;;;;;;;4.00;3.33;;;;;;;;5067753;28;8850;-68
2021/01/11 10:41:55;;;;;;;;;5.00;5.00;;;;;;;;5068706;28;8961;-67
2021/01/11 10:44:22;;;;;;;;;2.67;2.67;;;;;;;;5069891;28;9590;-66
2021/01/11 10:46:49;;;;;;;;;5.00;5.00;;;;;;;;5069100;28;8940;-68
2021/01/11 10:49:14;;;;;;;;;6.67;5.33;;;;;;;;5069641;28;8846;-67
2021/01/11 10:51:40;;;;;;;;;6.67;6.67;;;;;;;;5068290;28;8859;-68
2021/01/11 10:54:06;;;;;;;;;8.00;5.67;;;;;;;;5069018;28;8839;-68
2021/01/11 10:56:33;;;;;;;;;4.00;4.00;;;;;;;;5069865;28;8851;-68
2021/01/11 10:58:59;;;;;;;;;8.00;6.00;;;;;;;;5068603;28;8858;-69
2021/01/11 11:01:26;;;;;;;;;6.00;4.67;;;;;;;;5069390;28;8954;-68
2021/01/11 11:03:52;;;;;;;;;6.00;6.00;;;;;;;;5068487;28;8838;-69
2021/01/11 11:06:20;;;;;;;;;8.00;6.00;;;;;;;;5068766;28;8862;-68
2021/01/11 11:08:46;;;;;;;;;5.67;4.67;;;;;;;;5067528;28;8830;-69
2021/01/11 11:11:12;;;;;;;;;4.00;4.00;;;;;;;;5069057;28;8853;-68
2021/01/11 11:13:39;;;;;;;;;5.67;5.67;;;;;;;;5068464;28;8873;-69
2021/01/11 11:16:06;;;;;;;;;9.33;8.00;;;;;;;;5069491;28;8955;-67
2021/01/11 11:18:33;;;;;;;;;5.33;4.00;;;;;;;;5065943;28;8874;-71
2021/01/11 11:21:01;;;;;;;;;24.00;18.33;;;;;;;;5068439;28;8863;-69
2021/01/11 11:23:27;;;;;;;;;9.67;9.67;;;;;;;;5068697;28;9031;-68
2021/01/11 11:25:53;;;;;;;;;9.00;7.33;;;;;;;;5068340;28;8863;-68
2021/01/11 11:28:19;;;;;;;;;8.33;6.67;;;;;;;;5069295;28;8851;-68
2021/01/11 11:30:46;;;;;;;;;8.00;8.00;;;;;;;;5067964;28;8842;-70
2021/01/11 11:33:12;;;;;;;;;9.33;6.00;;;;;;;;5068745;28;8845;-70
2021/01/11 11:35:41;;;;;;;;;6.67;6.67;;;;;;;;5068511;28;8875;-68
2021/01/11 11:38:07;;;;;;;;;8.33;5.67;;;;;;;;5068845;28;8970;-69
2021/01/11 11:40:33;;;;;;;;;9.00;5.00;;;;;;;;5068474;28;8944;-68
2021/01/11 11:42:58;;;;;;;;;8.00;8.00;;;;;;;;5068517;28;8890;-69
2021/01/11 11:45:24;;;;;;;;;8.00;5.67;;;;;;;;5068953;28;9039;-68
2021/01/11 11:47:51;;;;;;;;;9.00;8.00;;;;;;;;5068435;28;8847;-69
2021/01/11 11:50:17;;;;;;;;;12.33;6.00;;;;;;;;5068683;28;8953;-68
2021/01/11 11:52:43;;;;;;;;;6.00;5.00;;;;;;;;5067661;28;8860;-68
2021/01/11 11:55:10;;;;;;;;;10.33;8.00;;;;;;;;5068204;28;8850;-69
2021/01/11 11:57:38;;;;;;;;;8.33;5.33;;;;;;;;5068248;28;8866;-67
2021/01/11 12:00:05;;;;;;;;;8.33;8.00;;;;;;;;5068203;28;8990;-67
2021/01/11 12:02:31;;;;;;;;;6.00;6.00;;;;;;;;5068639;28;8842;-67
2021/01/11 12:04:58;;;;;;;;;11.33;9.00;;;;;;;;5067730;28;8882;-68
2021/01/11 12:07:26;;;;;;;;;9.67;8.67;;;;;;;;5068423;28;8859;-67
2021/01/11 12:09:54;;;;;;;;;7.33;5.67;;;;;;;;5067731;28;8843;-67
2021/01/11 12:12:20;;;;;;;;;4.67;4.67;;;;;;;;5068321;28;8862;-66
2021/01/11 12:14:46;;;;;;;;;9.00;9.00;;;;;;;;5067009;28;9612;-66
2021/01/11 12:17:12;;;;;;;;;9.00;9.00;;;;;;;;5068156;28;8831;-67
2021/01/11 12:19:38;;;;;;;;;9.67;8.33;;;;;;;;5071064;28;8839;-67
2021/01/11 12:22:06;;;;;;;;;6.67;6.00;;;;;;;;5071308;28;8855;-66
2021/01/11 12:24:32;;;;;;;;;8.00;8.00;;;;;;;;5072238;28;8841;-67
2021/01/11 12:26:58;;;;;;;;;9.00;8.00;;;;;;;;5071196;28;9001;-66
2021/01/11 12:29:24;;;;;;;;;9.33;6.67;;;;;;;;5072332;28;8861;-66
2021/01/11 12:31:51;;;;;;;;;10.33;8.67;;;;;;;;5071551;28;8839;-67
2021/01/11 12:34:17;;;;;;;;;7.33;7.33;;;;;;;;5071994;28;8858;-68
2021/01/11 12:36:45;;;;;;;;;7.33;7.33;;;;;;;;5071592;28;8985;-67
2021/01/11 12:39:12;;;;;;;;;9.67;8.00;;;;;;;;5068278;28;8842;-66
2021/01/11 12:41:39;;;;;;;;;13.67;9.00;;;;;;;;5071270;28;8838;-66
2021/01/11 12:44:05;;;;;;;;;9.00;8.00;;;;;;;;5071761;28;9729;-68
2021/01/11 12:46:31;;;;;;;;;8.33;8.33;;;;;;;;5072063;28;8954;-68
2021/01/11 12:48:57;;;;;;;;;10.67;9.00;;;;;;;;5071842;28;8902;-67
2021/01/11 12:51:25;;;;;;;;;8.00;8.00;;;;;;;;5072377;28;8859;-68
2021/01/11 12:53:51;;;;;;;;;8.00;8.00;;;;;;;;5070394;28;8858;-66
2021/01/11 12:56:19;;;;;;;;;11.00;9.00;;;;;;;;5071444;28;8949;-67
2021/01/11 12:58:45;;;;;;;;;8.33;8.00;;;;;;;;5070963;28;8835;-67
2021/01/11 13:01:16;;;;;;;;;8.33;2.00;;;;;;;;5071267;28;8954;-67
2021/01/11 13:03:42;;;;;;;;;9.33;9.33;;;;;;;;5069818;28;8923;-65
2021/01/11 13:06:09;;;;;;;;;11.33;8.67;;;;;;;;5071043;28;9539;-66
2021/01/11 13:08:35;;;;;;;;;14.33;11.00;;;;;;;;5070400;28;9017;-68
2021/01/11 13:11:00;;;;;;;;;11.33;9.67;;;;;;;;5070806;28;8861;-67
2021/01/11 13:13:27;;;;;;;;;12.33;9.33;;;;;;;;5071414;28;8867;-67
2021/01/11 13:15:53;;;;;;;;;11.00;8.00;;;;;;;;5070186;28;8986;-67
2021/01/11 13:18:19;;;;;;;;;12.67;9.67;;;;;;;;5070945;28;8847;-68
2021/01/11 13:20:45;;;;;;;;;11.00;9.00;;;;;;;;5069810;28;9040;-69
2021/01/11 13:23:12;;;;;;;;;12.33;11.00;;;;;;;;5070437;28;8841;-65
2021/01/11 13:25:38;;;;;;;;;13.00;9.67;;;;;;;;5069684;28;8986;-67
2021/01/11 13:28:04;;;;;;;;;12.00;10.67;;;;;;;;5071244;28;8967;-68
2021/01/11 13:30:31;;;;;;;;;12.00;10.33;;;;;;;;5070137;28;8847;-68
2021/01/11 13:32:57;;;;;;;;;6.67;6.67;;;;;;;;5070427;28;8863;-68
2021/01/11 13:35:23;;;;;;;;;10.67;7.67;;;;;;;;5070294;28;8874;-67
2021/01/11 13:37:49;;;;;;;;;9.00;8.33;;;;;;;;5067432;28;8867;-67
2021/01/11 13:40:15;;;;;;;;;13.00;9.67;;;;;;;;5070822;28;8882;-66
2021/01/11 13:42:41;;;;;;;;;12.33;10.33;;;;;;;;5069810;28;8853;-66
2021/01/11 13:45:08;;;;;;;;;15.33;11.00;;;;;;;;5066927;28;8851;-67
2021/01/11 13:47:44;;;;;;;;;9.00;6.67;;;;;;;;5070080;28;8838;-67
2021/01/11 13:50:11;;;;;;;;;10.33;9.00;;;;;;;;5070330;28;8823;-66
2021/01/11 13:52:37;;;;;;;;;13.67;11.00;;;;;;;;5069554;28;8842;-68
2021/01/11 13:55:03;;;;;;;;;12.33;11.00;;;;;;;;5070357;28;8961;-67
2021/01/11 13:57:29;;;;;;;;;11.00;9.00;;;;;;;;5070269;28;8850;-67
2021/01/11 13:59:57;;;;;;;;;10.33;9.00;;;;;;;;5069334;28;8851;-66
2021/01/11 14:02:23;;;;;;;;;11.33;11.00;;;;;;;;5067409;28;8970;-68
2021/01/11 14:04:50;;;;;;;;;12.00;9.00;;;;;;;;5069137;28;8901;-68
2021/01/11 14:07:16;;;;;;;;;9.00;9.00;;;;;;;;5069381;28;8880;-67
2021/01/11 14:09:42;;;;;;;;;16.67;12.33;;;;;;;;5069453;28;8855;-66
2021/01/11 14:12:08;;;;;;;;;11.33;11.00;;;;;;;;5069809;28;8953;-69
2021/01/11 14:14:34;;;;;;;;;13.67;11.00;;;;;;;;5069149;28;8965;-68
2021/01/11 14:17:00;;;;;;;;;13.67;10.33;;;;;;;;5070207;28;8870;-70
2021/01/11 14:19:26;;;;;;;;;12.00;8.67;;;;;;;;5069777;28;8942;-66
2021/01/11 14:21:53;;;;;;;;;1.00;0.00;;;;;;;;5068770;28;8980;-67
2021/01/11 14:24:19;;;;;;;;;11.33;11.00;;;;;;;;5070972;28;8937;-68
2021/01/11 14:26:44;;;;;;;;;10.33;6.67;;;;;;;;5068695;28;8847;-68
2021/01/11 14:29:10;;;;;;;;;9.67;9.67;;;;;;;;5069145;28;8946;-69
2021/01/11 14:31:36;;;;;;;;;12.00;9.00;;;;;;;;5069526;28;8978;-68
2021/01/11 14:34:02;;;;;;;;;12.00;11.67;;;;;;;;5069130;28;8822;-68
2021/01/11 14:36:28;;;;;;;;;13.00;10.33;;;;;;;;5069770;28;8866;-68
2021/01/11 14:38:55;;;;;;;;;11.00;9.00;;;;;;;;5068639;28;8859;-68
2021/01/11 14:41:22;;;;;;;;;12.00;11.33;;;;;;;;5068870;28;8878;-70
2021/01/11 14:43:48;;;;;;;;;9.33;7.00;;;;;;;;5069017;28;8965;-68
2021/01/11 14:46:17;;;;;;;;;9.00;9.00;;;;;;;;5070074;28;8946;-67
2021/01/11 14:48:43;;;;;;;;;12.00;11.00;;;;;;;;5068359;28;8819;-68
2021/01/11 14:51:09;;;;;;;;;13.67;11.00;;;;;;;;5069387;28;8990;-70
2021/01/11 14:53:35;;;;;;;;;17.00;12.33;;;;;;;;5068926;28;8843;-68